Nordic Currents — CFN4326 — position and weather

sailwx.info

Track history (hours):
 
Tides and Currents Weather Stations Pressure Air Temp Water Temp Dewpoint Dewpoint Depression Visibility Wind Speed Wind Dir Waves Ship Positions

Nordic Currents

Last reported at 2015-May-26 19:29 UTC. Time now 2015-May-27 03:49 UTC.
Position N 52°46' W 128°07'.

Type: Pleasure craft. MMSI: 316010421.

Date/timePositionNaut miles runAvg speedWind from/ knotsBaromVisibWave heightAir tempDewpointWater temp
2015-May-26 19:29N 52°46' W 128°07'33 0.7
2015-May-24 18:33N 52°13' W 128°09'5 4.1
2015-May-24 17:25N 52°09' W 128°05'  
2015-May-18 15:26N 51°03' W 127°40'5 6.2
2015-May-18 14:33N 51°02' W 127°31'1 1.1
2015-May-18 13:31N 51°03' W 127°30'0 0.0
2015-May-18 12:31N 51°03' W 127°30'0 0.0
2015-May-18 11:31N 51°03' W 127°30'0 0.0
2015-May-18 10:31N 51°03' W 127°30'0 0.0
2015-May-18 09:25N 51°03' W 127°30'0 0.0
2015-May-18 08:31N 51°03' W 127°30'0 0.0
2015-May-18 07:31N 51°03' W 127°30'0 0.0
2015-May-18 06:31N 51°03' W 127°30'0 0.0
2015-May-18 05:31N 51°03' W 127°30'0 0.0
2015-May-18 04:28N 51°03' W 127°30'0 0.0
2015-May-18 03:16N 51°03' W 127°30'0 0.0
2015-May-18 02:31N 51°03' W 127°30'3 2.6
2015-May-18 01:30N 51°01' W 127°33'7 7.0
2015-May-18 00:32N 50°56' W 127°26'8 7.8
2015-May-17 23:32N 50°51' W 127°16'11 7.3
2015-May-17 22:05N 50°45' W 127°02'21 5.9
2015-May-17 18:33N 50°31' W 126°38'  
Track history (hours):
 
Tides and Currents Weather Stations Pressure Air Temp Water Temp Dewpoint Dewpoint Depression Visibility Wind Speed Wind Dir Waves Ship Positions

Nordic Currents

Last reported at 2015-May-26 19:29 UTC. Time now 2015-May-27 03:49 UTC.
Position N 52°46' W 128°07'.

Type: Pleasure craft. MMSI: 316010421.

Date/timePositionNaut miles runAvg speedWind from/ knotsBaromVisibWave heightAir tempDewpointWater temp
2015-May-26 19:29N 52°46' W 128°07'33 0.7
2015-May-24 18:33N 52°13' W 128°09'5 4.1
2015-May-24 17:25N 52°09' W 128°05'  
2015-May-18 15:26N 51°03' W 127°40'5 6.2
2015-May-18 14:33N 51°02' W 127°31'1 1.1
2015-May-18 13:31N 51°03' W 127°30'0 0.0
2015-May-18 12:31N 51°03' W 127°30'0 0.0
2015-May-18 11:31N 51°03' W 127°30'0 0.0
2015-May-18 10:31N 51°03' W 127°30'0 0.0
2015-May-18 09:25N 51°03' W 127°30'0 0.0
2015-May-18 08:31N 51°03' W 127°30'0 0.0
2015-May-18 07:31N 51°03' W 127°30'0 0.0
2015-May-18 06:31N 51°03' W 127°30'0 0.0
2015-May-18 05:31N 51°03' W 127°30'0 0.0
2015-May-18 04:28N 51°03' W 127°30'0 0.0
2015-May-18 03:16N 51°03' W 127°30'0 0.0
2015-May-18 02:31N 51°03' W 127°30'3 2.6
2015-May-18 01:30N 51°01' W 127°33'7 7.0
2015-May-18 00:32N 50°56' W 127°26'8 7.8
2015-May-17 23:32N 50°51' W 127°16'11 7.3
2015-May-17 22:05N 50°45' W 127°02'21 5.9
2015-May-17 18:33N 50°31' W 126°38'  

Dump ship's entire track history